Impacts METAR Board INFO
IDs:

KMSP - Minneapolis-St Paul, MN, US

Updated at: 0022 UTC 23 Jan 2018
Potential Impact None Slight Moderate High
Time22/12Z 22/13Z 22/14Z 22/15Z 22/16Z 22/17Z 22/18Z 22/19Z 22/20Z 22/21Z 22/22Z 22/23Z 23/00Z
VIS10 10 10 10 2.5 0.75 0.5 0.25 0.25 0.25 0.25 0.25 1
CIG14 13 15 55 24 9 8 5 5 4 5 7 10
CoverOVCOVCOVCOVCOVCOVXOVXOVXOVXOVXOVXOVXOVC
FltCatMVFRMVFRMVFRVFRIFRLIFRLIFRLIFRLIFRLIFRLIFRLIFRIFR
WX---------SN BR-SN BRSN+SN BLSN+SN BLSN+SN BLSN+SN BLSN+SN BLSN-SN BLSN
WDir30302020202010101010101020
WSpd15 15 15 17 13 15 19 22 15 16 15 17 16
WGst24 -- 21 -- 20 24 24 30 22 24 -- 24 28
Raw hourly METARs
KMSP 221153Z 03015G24KT 10SM OVC014 01/M01 A2982 RMK AO2 SNE34 SLP106 4/001 P0000 60000 T00061011 10017 20006 56013
KMSP 221253Z 03015KT 10SM OVC013 00/M01 A2981 RMK AO2 PK WND 03026/1211 SLP102 T00001011
KMSP 221353Z 02015G21KT 10SM BKN015 OVC050 00/M02 A2978 RMK AO2 SLP092 T00001017
KMSP 221453Z 02017KT 10SM SCT015 SCT046 OVC055 M01/M02 A2976 RMK AO2 SLP086 PRESENT WX VCSH T10061022 58019
KMSP 221604Z 02013G20KT 2 1/2SM -SN BR SCT012 OVC024 M01/M02 A2975 RMK AO2 P0000 T10061017
KMSP 221702Z 02015G24KT 3/4SM R30L/2800V4500FT -SN BR VV009 M01/M02 A2974 RMK AO2 P0000 T10111017
KMSP 221753Z 01019G24KT 1/2SM R30L/2600V3000FT SN VV008 M01/M02 A2970 RMK AO2 SLP066 4/001 P0004 60005 T10111017 10006 21011 58017
KMSP 221853Z 01022G30KT 1/4SM R30L/2000V2400FT +SN BLSN VV005 M01/M02 A2965 RMK AO2 PK WND 01030/1850 SLP048 SNINCR 1/2 P0006 T10111017 $
KMSP 221953Z 01015G22KT 1/4SM R30L/2000V2800FT +SN BLSN VV005 M01/M02 A2966 RMK AO2 PK WND 01028/1921 SLP054 SNINCR 2/4 P0009 T10111017
KMSP 222105Z 01016G24KT 1/4SM R30L/1600V2400FT +SN BLSN VV004 M02/M02 A2967 RMK AO2 P0002 T10171017 $
KMSP 222205Z 01015KT 1/4SM R30L/1600V2200FT +SN BLSN VV005 M02/M02 A2968 RMK AO2 P0005 T10221022 $
KMSP 222253Z 01017G24KT 1/4SM R30L/2600V4000FT +SN BLSN VV007 M03/M03 A2970 RMK AO2 PK WND 36028/2220 SLP066 SNINCR 1/8 P0012 T10281028 $
KMSP 230002Z 02016G28KT 1SM R30L/P6000FT -SN BLSN BKN010 OVC015 M03/M03 A2972 RMK AO2 P0002 T10281033 $